sensor_id;sensor_type;location;lat;lon;timestamp;pressure;altitude;pressure_sealevel;temperature;humidity
68141;BME280;54941;52.220;104.306;2023-05-09T00:00:33;96408.41;;;16.20;26.08
68141;BME280;54941;52.220;104.306;2023-05-09T00:02:59;96415.28;;;15.63;26.81
68141;BME280;54941;52.220;104.306;2023-05-09T00:05:26;96408.63;;;16.36;26.03
68141;BME280;54941;52.220;104.306;2023-05-09T00:07:52;96406.31;;;15.42;27.39
68141;BME280;54941;52.220;104.306;2023-05-09T00:10:20;96405.81;;;16.19;26.39
68141;BME280;54941;52.220;104.306;2023-05-09T00:12:46;96412.47;;;16.29;26.31
68141;BME280;54941;52.220;104.306;2023-05-09T00:15:13;96410.16;;;16.21;26.56
68141;BME280;54941;52.220;104.306;2023-05-09T00:17:39;96404.56;;;17.26;25.45
68141;BME280;54941;52.220;104.306;2023-05-09T00:20:06;96407.47;;;16.62;25.86
68141;BME280;54941;52.220;104.306;2023-05-09T00:22:33;96412.03;;;16.80;25.75
68141;BME280;54941;52.220;104.306;2023-05-09T00:24:59;96397.69;;;18.46;24.25
68141;BME280;54941;52.220;104.306;2023-05-09T00:27:27;96393.81;;;19.02;23.25
68141;BME280;54941;52.220;104.306;2023-05-09T00:29:53;96406.16;;;17.66;24.08
68141;BME280;54941;52.220;104.306;2023-05-09T00:32:20;96397.50;;;19.64;22.09
68141;BME280;54941;52.220;104.306;2023-05-09T00:34:46;96395.38;;;19.06;22.67
68141;BME280;54941;52.220;104.306;2023-05-09T00:37:12;96394.91;;;19.78;22.16
68141;BME280;54941;52.220;104.306;2023-05-09T00:39:39;96386.94;;;18.63;23.47
68141;BME280;54941;52.220;104.306;2023-05-09T00:42:05;96397.97;;;18.57;24.13
68141;BME280;54941;52.220;104.306;2023-05-09T00:44:33;96381.03;;;19.07;22.83
68141;BME280;54941;52.220;104.306;2023-05-09T00:46:59;96378.81;;;18.67;23.40
68141;BME280;54941;52.220;104.306;2023-05-09T00:49:25;96368.03;;;18.84;23.58
68141;BME280;54941;52.220;104.306;2023-05-09T00:51:52;96382.78;;;20.03;22.12
68141;BME280;54941;52.220;104.306;2023-05-09T00:54:19;96385.28;;;19.11;23.07
68141;BME280;54941;52.220;104.306;2023-05-09T00:56:45;96380.78;;;19.12;23.40
68141;BME280;54941;52.220;104.306;2023-05-09T00:59:12;96359.59;;;19.86;21.88
68141;BME280;54941;52.220;104.306;2023-05-09T01:01:39;96361.78;;;19.79;22.26
68141;BME280;54941;52.220;104.306;2023-05-09T01:04:06;96360.31;;;20.50;21.46
68141;BME280;54941;52.220;104.306;2023-05-09T01:06:37;96355.91;;;19.26;22.94
68141;BME280;54941;52.220;104.306;2023-05-09T01:09:13;96362.63;;;19.33;22.84
68141;BME280;54941;52.220;104.306;2023-05-09T01:11:50;96363.81;;;18.62;23.38
68141;BME280;54941;52.220;104.306;2023-05-09T01:14:23;96355.63;;;19.93;22.43
68141;BME280;54941;52.220;104.306;2023-05-09T01:17:00;96347.25;;;21.43;20.45
68141;BME280;54941;52.220;104.306;2023-05-09T01:19:49;96352.47;;;20.89;20.48
68141;BME280;54941;52.220;104.306;2023-05-09T01:22:17;96344.84;;;22.20;19.89
68141;BME280;54941;52.220;104.306;2023-05-09T01:27:44;96337.78;;;20.95;20.65
68141;BME280;54941;52.220;104.306;2023-05-09T01:30:15;96338.84;;;21.89;19.94
68141;BME280;54941;52.220;104.306;2023-05-09T01:32:42;96325.00;;;22.35;19.37
68141;BME280;54941;52.220;104.306;2023-05-09T01:35:12;96335.09;;;21.09;20.21
68141;BME280;54941;52.220;104.306;2023-05-09T01:37:41;96332.66;;;21.47;20.18
68141;BME280;54941;52.220;104.306;2023-05-09T01:40:12;96332.28;;;21.39;19.80
68141;BME280;54941;52.220;104.306;2023-05-09T01:42:42;96325.91;;;20.99;20.42
68141;BME280;54941;52.220;104.306;2023-05-09T01:45:10;96330.28;;;20.57;20.54
68141;BME280;54941;52.220;104.306;2023-05-09T01:47:40;96321.47;;;21.12;20.22
68141;BME280;54941;52.220;104.306;2023-05-09T01:50:08;96317.53;;;21.32;19.97
68141;BME280;54941;52.220;104.306;2023-05-09T01:52:37;96315.53;;;20.79;20.47
68141;BME280;54941;52.220;104.306;2023-05-09T01:55:04;96306.72;;;20.77;20.74
68141;BME280;54941;52.220;104.306;2023-05-09T01:57:32;96304.63;;;21.37;19.77
68141;BME280;54941;52.220;104.306;2023-05-09T01:59:59;96305.97;;;20.16;21.13
68141;BME280;54941;52.220;104.306;2023-05-09T02:02:26;96300.28;;;20.93;20.77
68141;BME280;54941;52.220;104.306;2023-05-09T02:04:55;96303.16;;;22.00;19.70
68141;BME280;54941;52.220;104.306;2023-05-09T02:07:23;96301.41;;;21.32;20.65
68141;BME280;54941;52.220;104.306;2023-05-09T02:09:51;96313.72;;;20.06;22.01
68141;BME280;54941;52.220;104.306;2023-05-09T02:12:18;96303.44;;;21.55;20.75
68141;BME280;54941;52.220;104.306;2023-05-09T02:14:44;96287.50;;;22.57;19.54
68141;BME280;54941;52.220;104.306;2023-05-09T02:17:11;96287.81;;;22.65;19.71
68141;BME280;54941;52.220;104.306;2023-05-09T02:19:37;96276.53;;;22.86;19.62
68141;BME280;54941;52.220;104.306;2023-05-09T02:22:05;96280.75;;;23.63;19.06
68141;BME280;54941;52.220;104.306;2023-05-09T02:24:32;96268.66;;;23.56;19.50
68141;BME280;54941;52.220;104.306;2023-05-09T02:26:59;96267.03;;;25.59;16.77
68141;BME280;54941;52.220;104.306;2023-05-09T02:29:30;96279.84;;;23.39;18.84
68141;BME280;54941;52.220;104.306;2023-05-09T02:32:00;96281.28;;;23.55;18.99
68141;BME280;54941;52.220;104.306;2023-05-09T02:34:28;96280.91;;;23.97;18.65
68141;BME280;54941;52.220;104.306;2023-05-09T02:36:54;96270.31;;;23.94;19.05
68141;BME280;54941;52.220;104.306;2023-05-09T02:39:22;96277.38;;;23.36;18.84
68141;BME280;54941;52.220;104.306;2023-05-09T02:41:49;96268.59;;;24.28;18.32
68141;BME280;54941;52.220;104.306;2023-05-09T02:44:15;96279.00;;;22.63;19.08
68141;BME280;54941;52.220;104.306;2023-05-09T02:46:41;96282.97;;;22.45;19.65
68141;BME280;54941;52.220;104.306;2023-05-09T02:49:07;96280.00;;;23.85;19.02
68141;BME280;54941;52.220;104.306;2023-05-09T02:51:34;96267.59;;;24.86;17.64
68141;BME280;54941;52.220;104.306;2023-05-09T02:54:00;96251.53;;;24.27;18.58
68141;BME280;54941;52.220;104.306;2023-05-09T02:56:28;96276.19;;;23.88;18.37
68141;BME280;54941;52.220;104.306;2023-05-09T02:58:54;96268.31;;;23.84;18.37
68141;BME280;54941;52.220;104.306;2023-05-09T03:01:20;96255.69;;;23.37;19.12
68141;BME280;54941;52.220;104.306;2023-05-09T03:03:46;96250.47;;;23.47;19.39
68141;BME280;54941;52.220;104.306;2023-05-09T03:06:13;96252.41;;;22.84;19.59
68141;BME280;54941;52.220;104.306;2023-05-09T03:08:39;96249.44;;;24.20;18.29
68141;BME280;54941;52.220;104.306;2023-05-09T03:11:05;96244.75;;;24.57;18.21
68141;BME280;54941;52.220;104.306;2023-05-09T03:13:33;96235.97;;;23.00;19.70
68141;BME280;54941;52.220;104.306;2023-05-09T03:15:59;96243.03;;;24.56;18.13
68141;BME280;54941;52.220;104.306;2023-05-09T03:18:26;96237.41;;;24.24;18.46
68141;BME280;54941;52.220;104.306;2023-05-09T03:20:52;96237.06;;;23.58;19.13
68141;BME280;54941;52.220;104.306;2023-05-09T03:23:18;96235.50;;;22.06;20.56
68141;BME280;54941;52.220;104.306;2023-05-09T03:25:44;96238.53;;;22.39;19.99
68141;BME280;54941;52.220;104.306;2023-05-09T03:28:11;96243.44;;;22.07;20.58
68141;BME280;54941;52.220;104.306;2023-05-09T03:30:38;96232.09;;;22.79;20.18
68141;BME280;54941;52.220;104.306;2023-05-09T03:33:05;96237.78;;;22.37;20.52
68141;BME280;54941;52.220;104.306;2023-05-09T03:35:31;96227.97;;;22.49;20.03
68141;BME280;54941;52.220;104.306;2023-05-09T03:37:57;96227.41;;;22.57;19.95
68141;BME280;54941;52.220;104.306;2023-05-09T03:40:24;96230.91;;;21.81;20.56
68141;BME280;54941;52.220;104.306;2023-05-09T03:42:50;96227.22;;;22.34;20.23
68141;BME280;54941;52.220;104.306;2023-05-09T03:45:16;96219.44;;;22.55;20.36
68141;BME280;54941;52.220;104.306;2023-05-09T03:47:44;96213.09;;;22.31;20.58
68141;BME280;54941;52.220;104.306;2023-05-09T03:50:10;96214.44;;;21.73;20.61
68141;BME280;54941;52.220;104.306;2023-05-09T03:52:37;96219.22;;;22.84;20.19
68141;BME280;54941;52.220;104.306;2023-05-09T03:55:04;96205.97;;;23.65;19.17
68141;BME280;54941;52.220;104.306;2023-05-09T03:57:33;96202.97;;;23.57;19.57
68141;BME280;54941;52.220;104.306;2023-05-09T03:59:59;96197.47;;;23.94;18.71
68141;BME280;54941;52.220;104.306;2023-05-09T04:02:26;96190.78;;;23.64;18.78
68141;BME280;54941;52.220;104.306;2023-05-09T04:04:53;96192.31;;;24.37;18.52
68141;BME280;54941;52.220;104.306;2023-05-09T04:07:20;96184.88;;;23.70;19.25
68141;BME280;54941;52.220;104.306;2023-05-09T04:09:46;96175.00;;;24.51;18.19
68141;BME280;54941;52.220;104.306;2023-05-09T04:12:13;96176.09;;;24.82;18.03
68141;BME280;54941;52.220;104.306;2023-05-09T04:14:39;96178.13;;;25.00;17.95
68141;BME280;54941;52.220;104.306;2023-05-09T04:17:05;96181.09;;;23.73;19.12
68141;BME280;54941;52.220;104.306;2023-05-09T04:19:32;96172.88;;;22.66;19.95
68141;BME280;54941;52.220;104.306;2023-05-09T04:22:00;96171.22;;;22.01;20.72
68141;BME280;54941;52.220;104.306;2023-05-09T04:24:26;96167.19;;;22.70;20.15
68141;BME280;54941;52.220;104.306;2023-05-09T04:26:52;96171.00;;;21.92;20.43
68141;BME280;54941;52.220;104.306;2023-05-09T04:29:19;96171.88;;;22.18;20.30
68141;BME280;54941;52.220;104.306;2023-05-09T04:31:45;96172.63;;;22.20;20.14
68141;BME280;54941;52.220;104.306;2023-05-09T04:34:11;96166.47;;;22.43;19.82
68141;BME280;54941;52.220;104.306;2023-05-09T04:36:37;96154.47;;;22.23;19.88
68141;BME280;54941;52.220;104.306;2023-05-09T04:39:05;96158.66;;;22.15;19.87
68141;BME280;54941;52.220;104.306;2023-05-09T04:41:31;96151.63;;;21.87;20.31
68141;BME280;54941;52.220;104.306;2023-05-09T04:43:58;96141.72;;;21.87;20.26
68141;BME280;54941;52.220;104.306;2023-05-09T04:46:24;96146.91;;;21.90;20.61
68141;BME280;54941;52.220;104.306;2023-05-09T04:48:51;96140.66;;;21.90;20.16
68141;BME280;54941;52.220;104.306;2023-05-09T04:51:17;96136.56;;;21.84;20.49
68141;BME280;54941;52.220;104.306;2023-05-09T04:53:43;96135.53;;;22.12;20.23
68141;BME280;54941;52.220;104.306;2023-05-09T04:56:11;96131.75;;;22.15;19.92
68141;BME280;54941;52.220;104.306;2023-05-09T04:58:37;96129.47;;;22.21;19.67
68141;BME280;54941;52.220;104.306;2023-05-09T05:01:04;96122.81;;;22.63;19.76
68141;BME280;54941;52.220;104.306;2023-05-09T05:03:30;96119.69;;;21.69;20.47
68141;BME280;54941;52.220;104.306;2023-05-09T05:05:57;96125.78;;;21.97;20.29
68141;BME280;54941;52.220;104.306;2023-05-09T05:08:23;96110.75;;;21.94;19.95
68141;BME280;54941;52.220;104.306;2023-05-09T05:10:50;96114.19;;;22.22;20.35
68141;BME280;54941;52.220;104.306;2023-05-09T05:13:17;96101.84;;;22.06;20.18
68141;BME280;54941;52.220;104.306;2023-05-09T05:15:44;96100.09;;;21.93;20.79
68141;BME280;54941;52.220;104.306;2023-05-09T05:18:10;96095.47;;;22.07;20.00
68141;BME280;54941;52.220;104.306;2023-05-09T05:20:36;96092.78;;;21.82;20.29
68141;BME280;54941;52.220;104.306;2023-05-09T05:23:05;96086.00;;;22.15;20.24
68141;BME280;54941;52.220;104.306;2023-05-09T05:25:32;96086.22;;;22.24;19.78
68141;BME280;54941;52.220;104.306;2023-05-09T05:27:58;96082.03;;;21.82;20.61
68141;BME280;54941;52.220;104.306;2023-05-09T05:30:26;96074.13;;;22.30;20.40
68141;BME280;54941;52.220;104.306;2023-05-09T05:32:52;96076.06;;;22.28;20.26
68141;BME280;54941;52.220;104.306;2023-05-09T05:35:19;96075.47;;;22.11;19.62
68141;BME280;54941;52.220;104.306;2023-05-09T05:37:45;96075.34;;;22.13;19.95
68141;BME280;54941;52.220;104.306;2023-05-09T05:40:11;96068.66;;;22.19;19.84
68141;BME280;54941;52.220;104.306;2023-05-09T05:42:38;96065.75;;;22.22;20.31
68141;BME280;54941;52.220;104.306;2023-05-09T05:45:05;96060.81;;;22.52;19.74
68141;BME280;54941;52.220;104.306;2023-05-09T05:47:35;96045.81;;;22.61;19.92
68141;BME280;54941;52.220;104.306;2023-05-09T05:50:01;96041.56;;;21.83;20.49
68141;BME280;54941;52.220;104.306;2023-05-09T05:52:30;96042.88;;;21.78;20.28
68141;BME280;54941;52.220;104.306;2023-05-09T05:54:56;96036.97;;;21.73;20.82
68141;BME280;54941;52.220;104.306;2023-05-09T05:57:22;96038.81;;;22.34;20.43
68141;BME280;54941;52.220;104.306;2023-05-09T05:59:49;96033.94;;;22.63;19.91
68141;BME280;54941;52.220;104.306;2023-05-09T06:02:16;96032.84;;;22.42;20.00
68141;BME280;54941;52.220;104.306;2023-05-09T06:04:44;96028.72;;;22.25;20.17
68141;BME280;54941;52.220;104.306;2023-05-09T06:07:11;96008.38;;;22.45;19.99
68141;BME280;54941;52.220;104.306;2023-05-09T06:09:38;96007.53;;;22.45;20.23
68141;BME280;54941;52.220;104.306;2023-05-09T06:12:05;96003.22;;;22.66;19.95
68141;BME280;54941;52.220;104.306;2023-05-09T06:14:32;96004.56;;;22.84;19.79
68141;BME280;54941;52.220;104.306;2023-05-09T06:16:58;96001.28;;;22.44;19.62
68141;BME280;54941;52.220;104.306;2023-05-09T06:19:25;96006.16;;;22.15;19.93
68141;BME280;54941;52.220;104.306;2023-05-09T06:21:53;96001.19;;;21.96;20.38
68141;BME280;54941;52.220;104.306;2023-05-09T06:24:19;95997.41;;;22.48;19.83
68141;BME280;54941;52.220;104.306;2023-05-09T06:26:45;95991.66;;;22.77;19.71
68141;BME280;54941;52.220;104.306;2023-05-09T06:29:12;95982.66;;;22.65;19.35
68141;BME280;54941;52.220;104.306;2023-05-09T06:31:38;95976.50;;;22.28;19.77
68141;BME280;54941;52.220;104.306;2023-05-09T06:34:04;95979.13;;;22.17;19.55
68141;BME280;54941;52.220;104.306;2023-05-09T06:36:31;95971.38;;;21.99;19.35
68141;BME280;54941;52.220;104.306;2023-05-09T06:39:00;95975.47;;;22.05;19.40
68141;BME280;54941;52.220;104.306;2023-05-09T06:41:26;95976.69;;;22.01;19.61
68141;BME280;54941;52.220;104.306;2023-05-09T06:43:52;95973.69;;;21.93;19.43
68141;BME280;54941;52.220;104.306;2023-05-09T06:46:19;95966.34;;;22.31;18.92
68141;BME280;54941;52.220;104.306;2023-05-09T06:48:45;95957.78;;;22.26;19.30
68141;BME280;54941;52.220;104.306;2023-05-09T06:51:11;95959.06;;;22.45;19.13
68141;BME280;54941;52.220;104.306;2023-05-09T06:53:38;95952.84;;;22.44;18.84
68141;BME280;54941;52.220;104.306;2023-05-09T06:56:06;95947.56;;;22.19;19.14
68141;BME280;54941;52.220;104.306;2023-05-09T06:58:32;95947.31;;;22.46;18.85
68141;BME280;54941;52.220;104.306;2023-05-09T07:00:58;95939.31;;;22.33;19.12
68141;BME280;54941;52.220;104.306;2023-05-09T07:03:25;95938.34;;;22.58;18.99
68141;BME280;54941;52.220;104.306;2023-05-09T07:05:51;95932.56;;;22.51;18.81
68141;BME280;54941;52.220;104.306;2023-05-09T07:08:17;95936.56;;;22.69;18.86
68141;BME280;54941;52.220;104.306;2023-05-09T07:10:44;95928.22;;;22.73;18.61
68141;BME280;54941;52.220;104.306;2023-05-09T07:13:11;95926.06;;;22.54;19.10
68141;BME280;54941;52.220;104.306;2023-05-09T07:15:38;95924.28;;;22.65;18.47
68141;BME280;54941;52.220;104.306;2023-05-09T07:18:04;95931.28;;;22.44;18.90
68141;BME280;54941;52.220;104.306;2023-05-09T07:20:30;95921.34;;;22.33;18.96
68141;BME280;54941;52.220;104.306;2023-05-09T07:22:57;95911.53;;;22.32;19.16
68141;BME280;54941;52.220;104.306;2023-05-09T07:25:23;95916.31;;;22.29;18.84
68141;BME280;54941;52.220;104.306;2023-05-09T07:27:50;95909.28;;;22.15;19.33
68141;BME280;54941;52.220;104.306;2023-05-09T07:30:18;95910.91;;;22.53;19.55
68141;BME280;54941;52.220;104.306;2023-05-09T07:32:44;95912.28;;;22.58;18.97
68141;BME280;54941;52.220;104.306;2023-05-09T07:35:10;95899.56;;;22.60;18.82
68141;BME280;54941;52.220;104.306;2023-05-09T07:37:36;95897.88;;;22.35;19.43
68141;BME280;54941;52.220;104.306;2023-05-09T07:40:03;95884.78;;;22.42;19.34
68141;BME280;54941;52.220;104.306;2023-05-09T07:42:31;95875.78;;;22.54;18.81
68141;BME280;54941;52.220;104.306;2023-05-09T07:44:58;95891.41;;;22.38;18.84
68141;BME280;54941;52.220;104.306;2023-05-09T07:47:26;95884.56;;;22.45;18.49
68141;BME280;54941;52.220;104.306;2023-05-09T07:49:52;95886.19;;;22.48;18.68
68141;BME280;54941;52.220;104.306;2023-05-09T07:52:19;95865.06;;;22.30;18.74
68141;BME280;54941;52.220;104.306;2023-05-09T07:54:45;95885.03;;;22.39;18.55
68141;BME280;54941;52.220;104.306;2023-05-09T07:57:11;95874.28;;;22.39;18.88
68141;BME280;54941;52.220;104.306;2023-05-09T07:59:37;95868.41;;;22.45;18.82
68141;BME280;54941;52.220;104.306;2023-05-09T08:02:04;95863.97;;;22.33;19.19
68141;BME280;54941;52.220;104.306;2023-05-09T08:04:31;95863.78;;;22.47;18.86
68141;BME280;54941;52.220;104.306;2023-05-09T08:06:58;95861.31;;;22.44;19.18
68141;BME280;54941;52.220;104.306;2023-05-09T08:09:24;95862.16;;;22.45;19.39
68141;BME280;54941;52.220;104.306;2023-05-09T08:11:50;95852.00;;;22.37;19.71
68141;BME280;54941;52.220;104.306;2023-05-09T08:14:16;95849.53;;;22.34;19.63
68141;BME280;54941;52.220;104.306;2023-05-09T08:16:43;95850.13;;;22.26;19.46
68141;BME280;54941;52.220;104.306;2023-05-09T08:19:09;95857.31;;;22.50;19.43
68141;BME280;54941;52.220;104.306;2023-05-09T08:21:37;95849.56;;;22.45;19.26
68141;BME280;54941;52.220;104.306;2023-05-09T08:24:03;95846.75;;;22.35;19.51
68141;BME280;54941;52.220;104.306;2023-05-09T08:26:30;95827.69;;;22.50;19.47
68141;BME280;54941;52.220;104.306;2023-05-09T08:28:56;95836.47;;;22.40;19.54
68141;BME280;54941;52.220;104.306;2023-05-09T08:31:22;95831.22;;;22.39;19.58
68141;BME280;54941;52.220;104.306;2023-05-09T08:33:49;95827.97;;;22.80;19.31
68141;BME280;54941;52.220;104.306;2023-05-09T08:36:15;95829.31;;;22.63;19.12
68141;BME280;54941;52.220;104.306;2023-05-09T08:38:43;95819.94;;;22.45;19.69
68141;BME280;54941;52.220;104.306;2023-05-09T08:41:09;95821.56;;;22.48;19.56
68141;BME280;54941;52.220;104.306;2023-05-09T08:43:36;95825.13;;;22.48;20.09
68141;BME280;54941;52.220;104.306;2023-05-09T08:46:06;95822.97;;;22.05;20.45
68141;BME280;54941;52.220;104.306;2023-05-09T08:48:33;95817.09;;;22.24;20.30
68141;BME280;54941;52.220;104.306;2023-05-09T08:51:00;95825.09;;;22.37;20.16
68141;BME280;54941;52.220;104.306;2023-05-09T08:53:26;95818.41;;;22.19;20.47
68141;BME280;54941;52.220;104.306;2023-05-09T08:55:54;95810.75;;;22.01;20.88
68141;BME280;54941;52.220;104.306;2023-05-09T08:58:23;95816.81;;;21.92;20.93
68141;BME280;54941;52.220;104.306;2023-05-09T09:00:49;95819.88;;;22.11;21.10
68141;BME280;54941;52.220;104.306;2023-05-09T09:03:16;95816.34;;;22.22;20.81
68141;BME280;54941;52.220;104.306;2023-05-09T09:05:44;95820.31;;;21.81;20.48
68141;BME280;54941;52.220;104.306;2023-05-09T09:08:13;95815.31;;;21.64;21.18
68141;BME280;54941;52.220;104.306;2023-05-09T09:10:40;95812.41;;;21.91;21.50
68141;BME280;54941;52.220;104.306;2023-05-09T09:13:09;95805.69;;;21.97;20.84
68141;BME280;54941;52.220;104.306;2023-05-09T09:15:37;95812.81;;;21.74;20.74
68141;BME280;54941;52.220;104.306;2023-05-09T09:18:07;95815.34;;;21.88;20.95
68141;BME280;54941;52.220;104.306;2023-05-09T09:20:34;95820.75;;;21.51;21.26
68141;BME280;54941;52.220;104.306;2023-05-09T09:23:03;95812.00;;;21.61;21.32
68141;BME280;54941;52.220;104.306;2023-05-09T09:25:33;95821.31;;;21.44;20.78
68141;BME280;54941;52.220;104.306;2023-05-09T09:28:00;95810.81;;;21.28;21.42
68141;BME280;54941;52.220;104.306;2023-05-09T09:30:27;95813.72;;;21.25;21.12
68141;BME280;54941;52.220;104.306;2023-05-09T09:32:54;95816.06;;;21.42;21.17
68141;BME280;54941;52.220;104.306;2023-05-09T09:35:20;95811.91;;;21.13;21.32
68141;BME280;54941;52.220;104.306;2023-05-09T09:37:47;95809.59;;;20.95;21.64
68141;BME280;54941;52.220;104.306;2023-05-09T09:40:13;95804.47;;;21.16;22.00
68141;BME280;54941;52.220;104.306;2023-05-09T09:42:40;95801.50;;;21.08;21.58
68141;BME280;54941;52.220;104.306;2023-05-09T09:45:09;95806.09;;;21.19;21.70
68141;BME280;54941;52.220;104.306;2023-05-09T09:47:37;95805.00;;;21.34;21.49
68141;BME280;54941;52.220;104.306;2023-05-09T09:50:14;95796.09;;;21.21;21.44
68141;BME280;54941;52.220;104.306;2023-05-09T09:52:48;95804.28;;;21.07;21.60
68141;BME280;54941;52.220;104.306;2023-05-09T09:55:15;95806.78;;;21.10;21.92
68141;BME280;54941;52.220;104.306;2023-05-09T09:57:41;95811.06;;;21.00;21.52
68141;BME280;54941;52.220;104.306;2023-05-09T10:00:08;95814.53;;;20.89;21.73
68141;BME280;54941;52.220;104.306;2023-05-09T10:02:35;95800.16;;;20.64;21.78
68141;BME280;54941;52.220;104.306;2023-05-09T10:05:17;95811.31;;;20.46;22.24
68141;BME280;54941;52.220;104.306;2023-05-09T10:07:44;95808.69;;;20.31;21.93
68141;BME280;54941;52.220;104.306;2023-05-09T10:10:10;95814.13;;;20.04;22.10
68141;BME280;54941;52.220;104.306;2023-05-09T10:12:37;95811.22;;;19.95;22.13
68141;BME280;54941;52.220;104.306;2023-05-09T10:15:06;95826.69;;;19.77;22.15
68141;BME280;54941;52.220;104.306;2023-05-09T10:17:34;95823.69;;;19.54;22.39
68141;BME280;54941;52.220;104.306;2023-05-09T10:20:03;95819.38;;;19.52;22.80
68141;BME280;54941;52.220;104.306;2023-05-09T10:22:32;95823.44;;;19.45;22.51
68141;BME280;54941;52.220;104.306;2023-05-09T10:25:02;95817.03;;;19.47;22.35
68141;BME280;54941;52.220;104.306;2023-05-09T10:27:34;95820.84;;;19.43;22.67
68141;BME280;54941;52.220;104.306;2023-05-09T10:30:02;95814.63;;;19.57;22.38
68141;BME280;54941;52.220;104.306;2023-05-09T10:32:40;95817.13;;;19.46;22.80
68141;BME280;54941;52.220;104.306;2023-05-09T10:35:10;95823.72;;;19.40;22.62
68141;BME280;54941;52.220;104.306;2023-05-09T10:37:38;95816.59;;;19.27;22.47
68141;BME280;54941;52.220;104.306;2023-05-09T10:40:05;95823.56;;;19.29;22.37
68141;BME280;54941;52.220;104.306;2023-05-09T10:42:32;95809.66;;;18.95;22.76
68141;BME280;54941;52.220;104.306;2023-05-09T10:45:00;95820.44;;;19.08;22.86
68141;BME280;54941;52.220;104.306;2023-05-09T10:47:27;95820.94;;;18.86;23.08
68141;BME280;54941;52.220;104.306;2023-05-09T10:49:54;95835.19;;;18.87;23.24
68141;BME280;54941;52.220;104.306;2023-05-09T10:52:21;95827.84;;;18.90;23.20
68141;BME280;54941;52.220;104.306;2023-05-09T10:54:57;95839.16;;;18.51;23.33
68141;BME280;54941;52.220;104.306;2023-05-09T10:57:25;95831.72;;;18.42;23.53
68141;BME280;54941;52.220;104.306;2023-05-09T10:59:52;95829.72;;;18.46;23.54
68141;BME280;54941;52.220;104.306;2023-05-09T11:02:19;95841.81;;;18.23;24.00
68141;BME280;54941;52.220;104.306;2023-05-09T11:04:46;95841.00;;;18.06;24.14
68141;BME280;54941;52.220;104.306;2023-05-09T11:07:22;95833.69;;;17.94;24.53
68141;BME280;54941;52.220;104.306;2023-05-09T11:09:52;95842.44;;;17.66;24.59
68141;BME280;54941;52.220;104.306;2023-05-09T11:12:19;95846.75;;;17.53;24.90
68141;BME280;54941;52.220;104.306;2023-05-09T11:14:48;95839.72;;;17.20;25.15
68141;BME280;54941;52.220;104.306;2023-05-09T11:17:27;95850.91;;;16.96;25.55
68141;BME280;54941;52.220;104.306;2023-05-09T11:20:03;95846.50;;;16.95;25.75
68141;BME280;54941;52.220;104.306;2023-05-09T11:22:39;95850.78;;;16.81;25.93
68141;BME280;54941;52.220;104.306;2023-05-09T11:25:09;95851.63;;;16.49;26.41
68141;BME280;54941;52.220;104.306;2023-05-09T11:27:39;95857.59;;;16.37;26.81
68141;BME280;54941;52.220;104.306;2023-05-09T11:30:07;95860.28;;;16.37;26.69
68141;BME280;54941;52.220;104.306;2023-05-09T11:32:40;95858.72;;;16.15;27.19
68141;BME280;54941;52.220;104.306;2023-05-09T11:35:08;95851.34;;;16.03;27.02
68141;BME280;54941;52.220;104.306;2023-05-09T11:37:43;95846.91;;;15.86;27.44
68141;BME280;54941;52.220;104.306;2023-05-09T11:40:12;95856.66;;;15.86;27.42
68141;BME280;54941;52.220;104.306;2023-05-09T11:42:41;95857.69;;;15.83;27.50
68141;BME280;54941;52.220;104.306;2023-05-09T11:45:07;95857.03;;;15.61;27.77
68141;BME280;54941;52.220;104.306;2023-05-09T11:47:35;95852.69;;;15.58;27.93
68141;BME280;54941;52.220;104.306;2023-05-09T11:50:02;95855.88;;;15.47;28.10
68141;BME280;54941;52.220;104.306;2023-05-09T11:52:31;95864.72;;;15.48;28.17
68141;BME280;54941;52.220;104.306;2023-05-09T11:54:58;95855.72;;;15.51;28.12
68141;BME280;54941;52.220;104.306;2023-05-09T11:57:26;95862.81;;;15.33;28.44
68141;BME280;54941;52.220;104.306;2023-05-09T11:59:53;95865.84;;;15.25;28.72
68141;BME280;54941;52.220;104.306;2023-05-09T12:02:20;95855.16;;;15.08;28.82
68141;BME280;54941;52.220;104.306;2023-05-09T12:04:47;95855.84;;;15.11;28.68
68141;BME280;54941;52.220;104.306;2023-05-09T12:07:13;95863.56;;;14.99;28.86
68141;BME280;54941;52.220;104.306;2023-05-09T12:09:39;95863.25;;;15.05;29.03
68141;BME280;54941;52.220;104.306;2023-05-09T12:12:09;95868.00;;;14.98;29.12
68141;BME280;54941;52.220;104.306;2023-05-09T12:14:37;95873.75;;;14.89;29.03
68141;BME280;54941;52.220;104.306;2023-05-09T12:17:05;95870.47;;;14.84;29.54
68141;BME280;54941;52.220;104.306;2023-05-09T12:19:31;95871.44;;;14.81;29.46
68141;BME280;54941;52.220;104.306;2023-05-09T12:21:58;95871.88;;;14.91;29.08
68141;BME280;54941;52.220;104.306;2023-05-09T12:24:25;95877.47;;;14.66;29.47
68141;BME280;54941;52.220;104.306;2023-05-09T12:26:51;95878.63;;;14.61;29.84
68141;BME280;54941;52.220;104.306;2023-05-09T12:29:18;95885.84;;;14.57;29.67
68141;BME280;54941;52.220;104.306;2023-05-09T12:31:48;95882.47;;;14.53;29.76
68141;BME280;54941;52.220;104.306;2023-05-09T12:34:15;95886.72;;;14.37;29.99
68141;BME280;54941;52.220;104.306;2023-05-09T12:36:43;95885.25;;;14.30;30.28
68141;BME280;54941;52.220;104.306;2023-05-09T12:39:09;95893.16;;;14.31;30.08
68141;BME280;54941;52.220;104.306;2023-05-09T12:41:42;95893.56;;;14.22;30.09
68141;BME280;54941;52.220;104.306;2023-05-09T12:44:08;95891.84;;;14.21;30.22